Time;durP1;ratioP1;P1;durP2;ratioP2;P2;SDS_P1;SDS_P2;PMS_P1;PMS_P2;Temp;Humidity;BMP_temperature;BMP_pressure;BME280_temperature;BME280_humidity;BME280_pressure;Samples;Min_cycle;Max_cycle;Signal;HPM_P1;HPM_P2
2024/04/15 00:00:48;;;;;;;3.80;2.78;;;14.80;93.00;;;;;;5404118;26;20073;-87
2024/04/15 00:03:15;;;;;;;6.45;2.92;;;14.80;93.10;;;;;;5395101;26;19996;-87
2024/04/15 00:05:42;;;;;;;3.75;2.67;;;14.70;93.00;;;;;;5415976;26;20073;-88
2024/04/15 00:08:11;;;;;;;5.03;2.60;;;14.80;93.20;;;;;;5401197;26;20458;-87
2024/04/15 00:10:41;;;;;;;4.25;2.90;;;14.80;93.20;;;;;;5380748;26;20011;-87
2024/04/15 00:13:08;;;;;;;6.00;3.45;;;14.70;93.20;;;;;;5387386;26;20036;-88
2024/04/15 00:15:37;;;;;;;5.13;3.40;;;14.70;93.60;;;;;;5409626;26;20070;-87
2024/04/15 00:18:07;;;;;;;5.43;3.22;;;14.70;93.40;;;;;;5407303;26;20004;-87
2024/04/15 00:20:36;;;;;;;5.60;3.00;;;14.70;93.30;;;;;;5413485;26;20008;-89
2024/04/15 00:23:03;;;;;;;10.60;3.25;;;14.70;93.00;;;;;;5419248;26;20011;-88
2024/04/15 00:25:30;;;;;;;7.72;3.40;;;14.70;93.80;;;;;;5413309;26;20066;-89
2024/04/15 00:27:57;;;;;;;4.30;2.90;;;14.60;93.60;;;;;;5398638;26;20073;-89
2024/04/15 00:30:26;;;;;;;4.15;2.72;;;14.60;93.70;;;;;;5384004;26;19996;-88
2024/04/15 00:32:53;;;;;;;3.60;3.25;;;14.60;93.70;;;;;;5383813;26;20070;-89
2024/04/15 00:35:21;;;;;;;5.40;2.97;;;14.50;94.00;;;;;;5391768;26;20430;-89
2024/04/15 00:37:51;;;;;;;6.80;3.88;;;14.60;93.30;;;;;;5421482;26;20035;-89
2024/04/15 00:40:20;;;;;;;7.68;3.03;;;14.50;94.00;;;;;;5409296;26;20000;-88
2024/04/15 00:42:47;;;;;;;7.15;2.78;;;14.40;93.80;;;;;;5405303;26;20455;-87
2024/04/15 00:45:31;;;;;;;4.53;3.05;;;14.50;94.50;;;;;;5387646;26;20008;-89
2024/04/15 00:48:00;;;;;;;5.20;3.22;;;14.40;94.80;;;;;;5403821;26;20070;-87
2024/04/15 00:50:31;;;;;;;7.57;3.53;;;14.40;94.90;;;;;;5404313;26;20012;-88
2024/04/15 00:53:06;;;;;;;6.07;3.03;;;14.40;95.20;;;;;;5385128;26;20008;-88
2024/04/15 00:55:35;;;;;;;5.00;3.13;;;14.30;95.20;;;;;;5412947;26;20323;-88
2024/04/15 00:58:03;;;;;;;7.68;3.58;;;14.30;94.90;;;;;;5383677;26;20070;-88
2024/04/15 01:00:31;;;;;;;7.13;3.22;;;14.30;95.60;;;;;;5408987;26;20004;-88
2024/04/15 01:02:58;;;;;;;7.25;3.30;;;14.30;95.40;;;;;;5404108;26;20024;-87
2024/04/15 01:05:25;;;;;;;5.13;3.20;;;14.30;95.60;;;;;;5390238;26;20018;-88
2024/04/15 01:07:54;;;;;;;5.50;3.10;;;14.20;95.00;;;;;;5403526;26;20003;-88
2024/04/15 01:10:22;;;;;;;7.38;2.88;;;14.20;95.00;;;;;;5387818;26;20008;-94
2024/04/15 01:12:51;;;;;;;5.43;3.55;;;14.20;95.20;;;;;;5400519;26;20016;-93
2024/04/15 01:15:19;;;;;;;5.30;3.28;;;14.20;95.20;;;;;;5390593;26;20000;-93
2024/04/15 01:17:45;;;;;;;5.28;3.35;;;14.20;95.30;;;;;;5420546;26;20014;-93
2024/04/15 01:20:13;;;;;;;5.55;3.42;;;14.10;95.50;;;;;;5388797;26;20016;-93
2024/04/15 01:23:08;;;;;;;6.57;3.50;;;14.10;95.40;;;;;;5386742;26;20029;-94
2024/04/15 01:25:36;;;;;;;4.53;3.25;;;14.10;95.90;;;;;;5386477;26;20005;-93
2024/04/15 01:28:03;;;;;;;3.83;2.83;;;14.00;95.50;;;;;;5386877;26;20001;-93
2024/04/15 01:30:30;;;;;;;6.78;3.35;;;14.00;95.60;;;;;;5384943;26;19996;-93
2024/04/15 01:32:58;;;;;;;5.18;3.35;;;13.90;96.30;;;;;;5399754;26;20012;-92
2024/04/15 01:35:25;;;;;;;7.80;3.25;;;13.90;96.60;;;;;;5402382;26;20006;-92
2024/04/15 01:37:53;;;;;;;4.63;3.50;;;13.90;96.50;;;;;;5390110;26;20000;-94
2024/04/15 01:40:20;;;;;;;6.95;3.72;;;13.90;96.90;;;;;;5399876;26;20000;-92
2024/04/15 01:42:47;;;;;;;5.05;2.90;;;13.90;97.10;;;;;;5404346;26;20370;-93
2024/04/15 01:45:14;;;;;;;6.47;3.17;;;13.80;96.70;;;;;;5401150;26;20011;-92
2024/04/15 01:47:44;;;;;;;7.25;3.28;;;13.80;96.90;;;;;;5410455;26;20072;-92
2024/04/15 01:50:14;;;;;;;5.18;2.75;;;13.80;96.80;;;;;;5409130;26;19995;-92
2024/04/15 01:52:41;;;;;;;4.43;2.88;;;13.80;96.60;;;;;;5386902;26;20008;-93
2024/04/15 01:55:08;;;;;;;4.95;3.33;;;13.80;96.80;;;;;;5406754;26;20891;-92
2024/04/15 01:57:38;;;;;;;5.18;3.42;;;13.80;96.80;;;;;;5410890;26;19999;-94
2024/04/15 02:00:06;;;;;;;4.30;3.17;;;13.80;96.80;;;;;;5422930;26;19995;-93
2024/04/15 02:02:34;;;;;;;5.10;3.42;;;13.70;97.00;;;;;;5422795;26;20003;-94
2024/04/15 02:05:02;;;;;;;4.95;3.20;;;13.70;97.00;;;;;;5393177;26;20050;-93
2024/04/15 02:07:29;;;;;;;5.80;2.90;;;13.70;97.00;;;;;;5419302;26;20011;-93
2024/04/15 02:09:56;;;;;;;5.38;3.65;;;13.70;97.30;;;;;;5421249;26;20515;-93
2024/04/15 02:12:23;;;;;;;8.00;3.17;;;13.60;97.40;;;;;;5397786;26;20004;-93
2024/04/15 02:14:50;;;;;;;4.65;3.13;;;13.70;97.80;;;;;;5422752;26;20494;-93
2024/04/15 02:17:17;;;;;;;7.97;3.38;;;13.60;98.00;;;;;;5422384;26;20008;-93
2024/04/15 02:19:45;;;;;;;9.70;3.72;;;13.60;97.90;;;;;;5410748;26;20046;-91
2024/04/15 02:22:12;;;;;;;5.97;3.35;;;13.60;98.10;;;;;;5386772;26;20065;-92
2024/04/15 02:24:41;;;;;;;4.63;3.20;;;13.60;98.10;;;;;;5412311;26;19997;-93
2024/04/15 02:27:08;;;;;;;7.25;3.53;;;13.60;98.20;;;;;;5391218;26;20000;-86
2024/04/15 02:29:35;;;;;;;6.10;3.38;;;13.50;98.10;;;;;;5402213;26;20912;-87
2024/04/15 02:32:03;;;;;;;5.47;3.85;;;13.50;98.30;;;;;;5382270;26;19996;-87
2024/04/15 02:34:32;;;;;;;8.05;3.28;;;13.50;98.20;;;;;;5389920;26;20028;-88
2024/04/15 02:37:01;;;;;;;4.35;3.30;;;13.40;98.30;;;;;;5400517;26;20010;-88
2024/04/15 02:39:31;;;;;;;6.93;3.97;;;13.40;98.30;;;;;;5382447;26;20046;-87
2024/04/15 02:41:58;;;;;;;7.43;3.60;;;13.40;98.10;;;;;;5381682;26;20122;-87
2024/04/15 02:44:27;;;;;;;6.95;3.67;;;13.30;98.80;;;;;;5383417;26;20012;-88
2024/04/15 02:46:54;;;;;;;5.85;3.67;;;13.40;98.80;;;;;;5405902;26;20004;-87
2024/04/15 02:49:21;;;;;;;8.95;3.70;;;13.30;98.90;;;;;;5386318;26;20000;-87
2024/04/15 02:51:48;;;;;;;6.07;3.60;;;13.30;98.90;;;;;;5383277;26;20439;-87
2024/04/15 02:54:15;;;;;;;5.25;3.30;;;13.30;98.80;;;;;;5403491;26;20011;-88
2024/04/15 02:56:43;;;;;;;6.35;4.10;;;13.30;98.40;;;;;;5392920;26;20077;-88
2024/04/15 02:59:10;;;;;;;5.18;3.45;;;13.30;98.70;;;;;;5381605;26;20392;-88
2024/04/15 03:01:37;;;;;;;8.70;3.40;;;13.30;98.80;;;;;;5405946;26;20007;-89
2024/04/15 03:04:04;;;;;;;7.72;3.67;;;13.30;98.90;;;;;;5384113;26;20007;-88
2024/04/15 03:06:33;;;;;;;7.25;3.88;;;13.30;99.20;;;;;;5414928;26;20818;-88
2024/04/15 03:09:01;;;;;;;6.20;3.65;;;13.30;99.10;;;;;;5416616;26;20008;-87
2024/04/15 03:11:54;;;;;;;5.40;3.78;;;13.30;98.80;;;;;;5389681;26;20050;-87
2024/04/15 03:14:21;;;;;;;5.85;3.70;;;13.30;99.10;;;;;;5413437;26;20000;-88
2024/04/15 03:16:50;;;;;;;6.85;3.70;;;13.30;99.00;;;;;;5395356;26;20001;-86
2024/04/15 03:19:17;;;;;;;5.30;3.72;;;13.20;99.00;;;;;;5401806;26;20828;-88
2024/04/15 03:21:44;;;;;;;8.90;3.88;;;13.30;99.30;;;;;;5381337;26;19997;-88
2024/04/15 03:24:12;;;;;;;7.70;3.63;;;13.30;99.40;;;;;;5402824;26;20024;-89
2024/04/15 03:26:39;;;;;;;5.65;3.50;;;13.30;99.30;;;;;;5396413;26;20011;-89
2024/04/15 03:29:06;;;;;;;4.55;3.63;;;13.30;99.30;;;;;;5417224;26;19995;-89
2024/04/15 03:31:36;;;;;;;6.82;3.75;;;13.30;99.30;;;;;;5416758;26;20076;-87
2024/04/15 03:34:04;;;;;;;5.28;3.45;;;13.30;99.40;;;;;;5388152;26;20000;-88
2024/04/15 03:36:33;;;;;;;5.65;3.47;;;13.30;99.50;;;;;;5382755;26;20335;-88
2024/04/15 03:39:00;;;;;;;8.32;4.13;;;13.30;99.50;;;;;;5400495;26;20008;-88
2024/04/15 03:41:27;;;;;;;7.07;3.42;;;13.20;99.60;;;;;;5410813;26;20015;-88
2024/04/15 03:43:54;;;;;;;6.47;3.80;;;13.20;99.50;;;;;;5405696;26;20001;-87
2024/04/15 03:46:21;;;;;;;4.63;3.13;;;13.20;99.30;;;;;;5386488;26;20015;-88
2024/04/15 03:48:48;;;;;;;5.90;3.85;;;13.20;98.90;;;;;;5404186;26;19995;-88
2024/04/15 03:51:16;;;;;;;4.97;3.85;;;13.20;99.10;;;;;;5399271;26;20029;-86
2024/04/15 03:53:43;;;;;;;4.93;3.63;;;13.20;99.40;;;;;;5411481;26;20452;-88
2024/04/15 03:56:10;;;;;;;5.43;3.75;;;13.10;99.40;;;;;;5403162;26;20006;-88
2024/04/15 03:58:37;;;;;;;8.02;3.50;;;13.10;99.60;;;;;;5407705;26;19997;-87
2024/04/15 04:01:06;;;;;;;7.47;3.30;;;13.10;99.80;;;;;;5419072;26;20395;-87
2024/04/15 04:03:33;;;;;;;5.78;3.80;;;13.10;99.70;;;;;;5413071;26;20388;-87
2024/04/15 04:06:00;;;;;;;5.47;3.97;;;13.10;99.70;;;;;;5399366;26;20006;-87
2024/04/15 04:08:38;;;;;;;5.60;3.70;;;13.10;99.50;;;;;;5383801;26;20019;-87
2024/04/15 04:11:06;;;;;;;7.18;3.75;;;13.10;99.80;;;;;;5413756;26;20487;-87
2024/04/15 04:13:36;;;;;;;6.60;3.80;;;13.10;99.90;;;;;;5384277;26;20012;-87
2024/04/15 04:16:06;;;;;;;9.00;3.75;;;13.00;99.90;;;;;;5413926;26;20073;-87
2024/04/15 04:18:33;;;;;;;5.57;3.90;;;13.00;99.90;;;;;;5405527;26;19996;-87
2024/04/15 04:21:08;;;;;;;6.75;3.60;;;13.00;99.90;;;;;;5419744;26;20442;-87
2024/04/15 04:23:35;;;;;;;4.35;3.03;;;13.00;99.90;;;;;;5418467;26;20331;-87
2024/04/15 04:26:02;;;;;;;5.78;3.92;;;13.00;99.90;;;;;;5396195;26;19996;-87
2024/04/15 04:28:31;;;;;;;5.85;3.63;;;13.00;99.90;;;;;;5418442;26;20006;-87
2024/04/15 04:31:03;;;;;;;5.90;3.85;;;12.90;99.90;;;;;;5419580;26;20000;-87
2024/04/15 04:33:32;;;;;;;7.45;4.13;;;12.90;99.90;;;;;;5409690;26;20601;-87
2024/04/15 04:36:01;;;;;;;4.57;3.75;;;12.90;99.90;;;;;;5416637;26;20004;-87
2024/04/15 04:38:28;;;;;;;8.45;3.65;;;12.90;99.90;;;;;;5413458;26;20010;-87
2024/04/15 04:40:59;;;;;;;10.23;3.58;;;12.90;99.90;;;;;;5407811;26;20046;-87
2024/04/15 04:43:29;;;;;;;5.55;3.47;;;12.90;99.90;;;;;;5400512;26;20454;-87
2024/04/15 04:46:06;;;;;;;7.50;3.70;;;13.00;99.90;;;;;;5401900;26;20072;-87
2024/04/15 04:48:36;;;;;;;11.40;4.35;;;13.00;99.90;;;;;;5418875;26;19995;-87
2024/04/15 04:51:10;;;;;;;4.70;3.80;;;13.00;99.90;;;;;;5383418;26;19996;-88
2024/04/15 04:53:37;;;;;;;7.93;3.65;;;13.00;99.90;;;;;;5419256;26;20822;-86
2024/04/15 04:56:11;;;;;;;6.97;3.60;;;13.10;99.90;;;;;;5416994;26;20068;-87
2024/04/15 04:58:39;;;;;;;7.88;3.83;;;13.10;99.90;;;;;;5414022;26;19997;-88
2024/04/15 05:01:07;;;;;;;5.47;3.63;;;13.10;99.90;;;;;;5409276;26;19999;-87
2024/04/15 05:03:35;;;;;;;6.53;3.85;;;13.20;99.70;;;;;;5418703;26;20000;-87
2024/04/15 05:06:09;;;;;;;9.45;3.80;;;13.20;99.80;;;;;;5411019;26;20003;-87
2024/04/15 05:08:39;;;;;;;6.93;3.72;;;13.30;99.90;;;;;;5401415;26;20008;-87
2024/04/15 05:11:06;;;;;;;10.88;3.92;;;13.30;99.90;;;;;;5408376;26;19999;-88
2024/04/15 05:13:36;;;;;;;8.45;3.78;;;13.40;99.80;;;;;;5391629;26;20016;-87
2024/04/15 05:16:11;;;;;;;7.40;3.75;;;13.40;99.50;;;;;;5412533;26;19996;-88
2024/04/15 05:18:43;;;;;;;5.85;3.40;;;13.50;99.20;;;;;;5389988;26;20072;-88
2024/04/15 05:21:17;;;;;;;7.43;3.42;;;13.50;99.10;;;;;;5401508;26;19999;-87
2024/04/15 05:23:45;;;;;;;5.82;3.90;;;13.60;98.80;;;;;;5412293;26;20008;-87
2024/04/15 05:26:12;;;;;;;17.13;5.13;;;13.70;98.80;;;;;;5426223;26;20004;-87
2024/04/15 05:28:39;;;;;;;5.78;3.35;;;13.70;98.80;;;;;;5404690;26;20395;-87
2024/04/15 05:31:06;;;;;;;10.68;3.42;;;13.80;98.70;;;;;;5378866;26;20011;-87
2024/04/15 05:33:34;;;;;;;7.90;3.28;;;13.80;98.50;;;;;;5409661;26;20015;-88
2024/04/15 05:36:01;;;;;;;6.88;3.42;;;14.00;98.50;;;;;;5436713;26;20004;-93
2024/04/15 05:38:30;;;;;;;4.50;2.83;;;14.10;98.10;;;;;;5396774;26;19995;-93
2024/04/15 05:40:57;;;;;;;4.30;2.88;;;14.20;97.90;;;;;;5397478;26;20080;-92
2024/04/15 05:43:25;;;;;;;4.45;2.67;;;14.20;97.60;;;;;;5411836;26;20061;-90
2024/04/15 05:45:55;;;;;;;5.20;2.85;;;14.30;97.40;;;;;;5412131;26;22544;-90
2024/04/15 05:48:22;;;;;;;6.57;2.97;;;14.40;97.30;;;;;;5411991;26;20004;-90
2024/04/15 05:50:49;;;;;;;7.60;3.03;;;14.50;96.80;;;;;;5417452;26;20012;-93
2024/04/15 05:53:16;;;;;;;6.32;3.00;;;14.60;96.70;;;;;;5413145;26;19997;-94
2024/04/15 05:55:45;;;;;;;6.10;3.08;;;14.70;96.80;;;;;;5415996;26;19996;-94
2024/04/15 05:58:12;;;;;;;4.53;2.85;;;14.80;96.20;;;;;;5384772;26;20047;-93
2024/04/15 06:00:41;;;;;;;8.35;3.28;;;14.90;95.80;;;;;;5408207;26;20026;-93
2024/04/15 06:03:09;;;;;;;6.45;2.90;;;15.00;96.30;;;;;;5398360;26;19996;-94
2024/04/15 06:05:36;;;;;;;6.57;3.75;;;15.20;96.70;;;;;;5404333;26;20400;-93
2024/04/15 06:08:04;;;;;;;9.18;3.92;;;15.30;96.60;;;;;;5409078;26;20028;-94
2024/04/15 06:10:34;;;;;;;9.95;3.63;;;15.50;96.20;;;;;;5395041;26;20004;-94
2024/04/15 06:13:01;;;;;;;8.13;3.83;;;15.60;94.70;;;;;;5387251;26;20000;-93
2024/04/15 06:15:36;;;;;;;8.40;3.67;;;15.80;94.50;;;;;;5417633;26;19991;-93
2024/04/15 06:18:07;;;;;;;9.65;3.60;;;15.90;93.40;;;;;;5418663;26;19999;-93
2024/04/15 06:20:33;;;;;;;11.52;3.17;;;16.00;92.50;;;;;;5418551;26;20007;-93
2024/04/15 06:23:01;;;;;;;7.65;3.85;;;16.10;92.10;;;;;;5401324;26;20012;-93
2024/04/15 06:25:28;;;;;;;8.93;2.95;;;16.20;91.00;;;;;;5408960;26;20081;-91
2024/04/15 06:27:55;;;;;;;8.10;3.38;;;16.40;89.80;;;;;;5418003;26;19992;-88
2024/04/15 06:30:25;;;;;;;6.40;3.20;;;16.60;90.20;;;;;;5387645;26;20015;-88
2024/04/15 06:32:52;;;;;;;8.63;3.00;;;16.70;89.30;;;;;;5407672;26;20008;-88
2024/04/15 06:35:19;;;;;;;9.90;3.03;;;16.90;88.10;;;;;;5417124;26;20071;-88
2024/04/15 06:37:46;;;;;;;8.63;3.15;;;17.10;86.20;;;;;;5418167;26;20031;-88
2024/04/15 06:40:13;;;;;;;6.47;2.92;;;17.20;84.30;;;;;;5418051;26;20050;-88
2024/04/15 06:42:40;;;;;;;8.95;3.17;;;17.30;84.80;;;;;;5417728;26;19995;-87
2024/04/15 06:45:09;;;;;;;8.55;3.00;;;17.40;83.20;;;;;;5417003;26;20000;-88
2024/04/15 06:47:36;;;;;;;4.97;2.80;;;17.60;84.20;;;;;;5384739;26;20008;-88
2024/04/15 06:50:05;;;;;;;7.93;3.10;;;17.70;83.40;;;;;;5408208;26;20477;-88
2024/04/15 06:52:32;;;;;;;6.80;2.75;;;17.80;81.40;;;;;;5402199;26;20008;-89
2024/04/15 06:54:59;;;;;;;7.25;3.38;;;17.90;82.00;;;;;;5382870;26;20431;-88
2024/04/15 06:57:26;;;;;;;7.30;2.83;;;18.00;82.40;;;;;;5390080;26;19997;-88
2024/04/15 06:59:53;;;;;;;8.57;3.08;;;18.10;83.40;;;;;;5401561;26;20367;-94
2024/04/15 07:02:23;;;;;;;9.73;2.97;;;18.20;82.90;;;;;;5383024;26;19992;-94
2024/04/15 07:04:54;;;;;;;12.25;3.17;;;18.40;76.00;;;;;;5399776;26;20000;-94
2024/04/15 07:07:25;;;;;;;7.22;3.00;;;18.50;77.00;;;;;;5389873;26;20430;-95
2024/04/15 07:09:53;;;;;;;8.52;2.85;;;18.70;77.80;;;;;;5388599;26;20427;-95
2024/04/15 07:12:23;;;;;;;6.95;3.03;;;18.90;73.10;;;;;;5403761;26;20004;-95
2024/04/15 07:14:51;;;;;;;10.45;2.78;;;19.00;66.90;;;;;;5424963;26;20018;-95
2024/04/15 07:17:20;;;;;;;6.63;2.78;;;19.10;64.80;;;;;;5410896;26;20015;-96
2024/04/15 07:19:48;;;;;;;12.50;2.88;;;19.20;64.90;;;;;;5399272;26;20077;-95
2024/04/15 07:22:17;;;;;;;3.53;2.53;;;19.30;64.00;;;;;;5403444;26;20072;-94
2024/04/15 07:24:45;;;;;;;4.53;2.70;;;19.40;64.30;;;;;;5407152;26;20084;-95
2024/04/15 07:27:12;;;;;;;3.45;2.50;;;19.50;65.50;;;;;;5409169;26;20004;-95
2024/04/15 07:29:39;;;;;;;8.82;2.85;;;19.60;65.20;;;;;;5413078;26;20050;-96
2024/04/15 07:32:06;;;;;;;9.18;2.92;;;19.70;64.80;;;;;;5421943;26;20007;-94
2024/04/15 07:34:36;;;;;;;5.22;3.28;;;19.80;64.70;;;;;;5399403;26;20015;-94
2024/04/15 07:37:07;;;;;;;10.13;3.10;;;19.90;63.40;;;;;;5407666;26;19999;-92
2024/04/15 07:39:34;;;;;;;5.57;3.53;;;19.90;64.30;;;;;;5396826;26;19996;-91
2024/04/15 07:42:01;;;;;;;9.02;3.45;;;19.90;63.70;;;;;;5399123;26;20449;-93
2024/04/15 07:44:28;;;;;;;8.93;3.85;;;19.80;63.90;;;;;;5417003;26;20076;-93
2024/04/15 07:46:55;;;;;;;12.20;3.10;;;19.80;63.90;;;;;;5413411;26;20076;-93
2024/04/15 07:49:24;;;;;;;6.95;3.45;;;19.70;64.40;;;;;;5420029;26;19992;-93
2024/04/15 07:51:51;;;;;;;5.30;2.97;;;19.70;65.50;;;;;;5384893;26;20004;-93
2024/04/15 07:54:21;;;;;;;7.93;3.58;;;19.60;65.30;;;;;;5403857;26;20000;-92
2024/04/15 07:56:48;;;;;;;6.28;3.25;;;19.50;65.90;;;;;;5407274;26;20008;-93
2024/04/15 07:59:15;;;;;;;3.00;2.65;;;19.50;66.60;;;;;;5420768;26;20454;-94
2024/04/15 08:01:42;;;;;;;10.77;3.25;;;19.40;66.90;;;;;;5411957;26;20084;-92
2024/04/15 08:04:09;;;;;;;3.47;2.60;;;19.30;67.50;;;;;;5406908;26;20024;-93
2024/04/15 08:06:36;;;;;;;5.75;2.72;;;19.20;67.50;;;;;;5438362;26;20000;-92
2024/04/15 08:12:51;;;;;;;11.90;2.40;;;19.10;68.50;;;;;;5388153;26;20019;-93
2024/04/15 08:15:20;;;;;;;6.30;2.28;;;19.10;68.70;;;;;;5384235;26;20435;-93
2024/04/15 08:17:47;;;;;;;5.38;2.55;;;19.20;68.90;;;;;;5413519;26;20013;-93
2024/04/15 08:20:14;;;;;;;6.25;3.25;;;19.20;69.30;;;;;;5404587;26;20011;-93
2024/04/15 08:22:43;;;;;;;5.35;2.20;;;19.20;69.00;;;;;;5413667;26;20070;-93
2024/04/15 08:25:11;;;;;;;4.70;2.25;;;19.20;69.60;;;;;;5432932;26;20011;-93
2024/04/15 08:27:38;;;;;;;3.58;2.22;;;19.30;70.20;;;;;;5420061;26;20006;-93
2024/04/15 08:30:06;;;;;;;3.15;2.50;;;19.30;69.70;;;;;;5396847;26;20050;-92
2024/04/15 08:32:36;;;;;;;7.22;2.45;;;19.40;69.10;;;;;;5384332;26;20004;-93
2024/04/15 08:35:05;;;;;;;18.05;2.90;;;19.40;70.50;;;;;;5385846;26;20008;-92
2024/04/15 08:37:32;;;;;;;4.22;2.60;;;19.50;69.80;;;;;;5415673;26;20011;-93
2024/04/15 08:39:59;;;;;;;7.18;2.00;;;19.50;70.70;;;;;;5418286;26;20049;-93
2024/04/15 08:42:29;;;;;;;5.25;2.63;;;19.60;70.20;;;;;;5383994;26;20012;-92
2024/04/15 08:44:59;;;;;;;3.78;2.38;;;19.70;70.70;;;;;;5394720;26;20046;-92
2024/04/15 08:47:30;;;;;;;4.72;2.15;;;19.70;69.90;;;;;;5417531;26;20446;-92
2024/04/15 08:49:58;;;;;;;6.85;2.60;;;19.60;69.60;;;;;;5413102;26;20000;-92
2024/04/15 08:52:25;;;;;;;6.50;2.47;;;19.70;69.90;;;;;;5427378;26;20082;-93
2024/04/15 08:54:55;;;;;;;4.35;2.38;;;19.60;69.60;;;;;;5397504;26;20050;-92
2024/04/15 08:57:27;;;;;;;9.73;2.65;;;19.60;70.10;;;;;;5385238;26;20007;-93
2024/04/15 08:59:59;;;;;;;4.07;2.33;;;19.60;70.10;;;;;;5383984;26;20000;-93
2024/04/15 09:02:30;;;;;;;4.57;2.78;;;19.60;69.60;;;;;;5392661;26;20069;-94
2024/04/15 09:05:00;;;;;;;6.88;2.60;;;19.60;69.90;;;;;;5413048;26;20003;-93
2024/04/15 09:07:27;;;;;;;6.82;3.00;;;19.50;70.10;;;;;;5412382;26;19999;-93
2024/04/15 09:09:54;;;;;;;4.90;2.20;;;19.50;69.60;;;;;;5387015;26;20032;-93
2024/04/15 09:12:21;;;;;;;9.18;2.50;;;19.50;69.80;;;;;;5416886;26;20039;-93
2024/04/15 09:14:48;;;;;;;5.00;2.42;;;19.50;70.90;;;;;;5418896;26;20457;-93
2024/04/15 09:17:16;;;;;;;3.60;2.50;;;19.50;69.80;;;;;;5387749;26;19997;-93
2024/04/15 09:19:44;;;;;;;4.30;2.30;;;19.50;69.90;;;;;;5388359;26;20302;-92
2024/04/15 09:22:11;;;;;;;6.07;2.70;;;19.50;70.80;;;;;;5391151;26;20004;-92
2024/04/15 09:24:38;;;;;;;3.88;2.40;;;19.50;71.80;;;;;;5407797;26;20019;-93
2024/04/15 09:27:06;;;;;;;6.80;2.58;;;19.60;73.60;;;;;;5405909;26;20000;-93
2024/04/15 09:29:36;;;;;;;3.92;2.13;;;19.60;72.30;;;;;;5383551;26;20074;-92
2024/04/15 09:32:04;;;;;;;4.78;2.55;;;19.60;71.80;;;;;;5393646;26;19999;-92
2024/04/15 09:34:33;;;;;;;4.10;2.42;;;19.60;71.50;;;;;;5413811;26;20000;-92
2024/04/15 09:37:01;;;;;;;3.15;1.98;;;19.60;70.30;;;;;;5390841;26;20008;-91
2024/04/15 09:39:29;;;;;;;5.90;2.78;;;19.60;71.20;;;;;;5383553;26;20004;-93
2024/04/15 09:42:00;;;;;;;5.43;2.38;;;19.70;70.90;;;;;;5384176;26;20030;-93
2024/04/15 09:44:29;;;;;;;2.80;2.45;;;19.80;71.20;;;;;;5415093;26;20011;-93
2024/04/15 09:47:01;;;;;;;3.42;2.13;;;19.90;71.10;;;;;;5416538;26;20031;-92
2024/04/15 09:49:29;;;;;;;4.05;2.40;;;20.10;71.10;;;;;;5409454;26;20486;-92
2024/04/15 09:52:03;;;;;;;4.22;2.53;;;20.30;70.80;;;;;;5382119;26;20448;-92
2024/04/15 09:54:32;;;;;;;;;;;20.30;70.90;;;;;;5394636;26;20010;-92
2024/04/15 09:57:11;;;;;;;6.30;2.47;;;20.50;70.10;;;;;;5386498;26;19991;-92
2024/04/15 09:59:39;;;;;;;5.40;2.40;;;20.50;69.30;;;;;;5385984;26;20016;-92
2024/04/15 10:02:17;;;;;;;3.67;2.40;;;20.50;66.90;;;;;;5396473;26;20069;-92
2024/04/15 10:04:47;;;;;;;5.00;2.80;;;20.60;67.80;;;;;;5392803;26;20018;-92
2024/04/15 10:07:16;;;;;;;5.68;2.45;;;20.60;68.70;;;;;;5417077;26;20011;-92
2024/04/15 10:09:44;;;;;;;3.85;2.42;;;20.60;67.30;;;;;;5405078;26;20000;-92
2024/04/15 10:12:11;;;;;;;4.80;2.40;;;20.50;67.10;;;;;;5405185;26;20096;-92
2024/04/15 10:14:38;;;;;;;5.25;2.15;;;20.40;66.60;;;;;;5413076;26;20004;-91
2024/04/15 10:17:09;;;;;;;3.50;2.25;;;20.30;66.80;;;;;;5404810;26;20014;-93
2024/04/15 10:19:40;;;;;;;7.18;2.33;;;20.20;67.60;;;;;;5417107;26;20515;-92
2024/04/15 10:22:09;;;;;;;4.72;2.30;;;20.10;67.50;;;;;;5383135;26;20000;-92
2024/04/15 10:24:38;;;;;;;5.07;2.20;;;20.00;68.00;;;;;;5393721;26;20007;-93
2024/04/15 10:27:06;;;;;;;5.55;2.10;;;19.90;68.20;;;;;;5417852;26;19999;-92
2024/04/15 10:29:38;;;;;;;2.60;1.98;;;19.80;70.10;;;;;;5384785;26;20325;-92
2024/04/15 10:32:08;;;;;;;2.92;2.00;;;19.70;70.40;;;;;;5387697;26;20543;-92
2024/04/15 10:34:42;;;;;;;3.25;2.22;;;19.60;71.10;;;;;;5404457;26;20373;-92
2024/04/15 10:37:14;;;;;;;3.60;2.20;;;19.50;72.20;;;;;;5408053;26;20080;-94
2024/04/15 10:39:47;;;;;;;3.42;2.30;;;19.60;73.50;;;;;;5417893;26;20004;-94
2024/04/15 10:42:17;;;;;;;3.88;1.98;;;19.50;73.50;;;;;;5412088;26;20012;-93
2024/04/15 10:44:44;;;;;;;2.55;2.28;;;19.40;72.80;;;;;;5393198;26;19996;-92
2024/04/15 10:47:11;;;;;;;4.53;2.13;;;19.30;74.00;;;;;;5384582;26;20012;-92
2024/04/15 10:49:41;;;;;;;3.97;2.30;;;19.20;75.00;;;;;;5411825;26;20000;-94
2024/04/15 10:52:08;;;;;;;3.95;2.60;;;19.10;74.30;;;;;;5411992;26;20564;-91
2024/04/15 10:54:35;;;;;;;4.28;2.17;;;19.10;75.10;;;;;;5414939;26;20032;-91
2024/04/15 10:57:03;;;;;;;3.80;2.05;;;19.00;76.70;;;;;;5397720;26;20070;-92
2024/04/15 10:59:30;;;;;;;2.95;1.88;;;19.00;76.40;;;;;;5382293;26;20008;-93
2024/04/15 11:01:57;;;;;;;4.25;2.10;;;19.00;77.40;;;;;;5382026;26;20004;-93
2024/04/15 11:04:24;;;;;;;4.57;2.10;;;18.90;78.50;;;;;;5382412;26;20012;-92
2024/04/15 11:06:51;;;;;;;2.60;1.90;;;18.90;78.50;;;;;;5384784;26;20012;-91
2024/04/15 11:09:20;;;;;;;4.30;1.88;;;18.80;78.80;;;;;;5418175;26;19991;-92
2024/04/15 11:11:47;;;;;;;1.90;1.67;;;18.80;78.90;;;;;;5411581;26;20012;-92
2024/04/15 11:14:14;;;;;;;2.63;2.10;;;18.70;78.60;;;;;;5422718;26;20007;-92
2024/04/15 11:16:46;;;;;;;3.00;2.03;;;18.80;78.00;;;;;;5389654;26;20000;-91
2024/04/15 11:19:16;;;;;;;4.65;2.00;;;18.80;78.80;;;;;;5403280;26;19997;-92
2024/04/15 11:21:45;;;;;;;3.50;1.85;;;18.80;79.50;;;;;;5385203;26;20044;-92
2024/04/15 11:24:16;;;;;;;8.10;2.85;;;18.70;78.80;;;;;;5417068;26;20007;-92
2024/04/15 11:26:44;;;;;;;4.90;2.17;;;18.70;79.00;;;;;;5390623;26;20339;-89
2024/04/15 11:29:13;;;;;;;4.70;2.08;;;18.70;79.80;;;;;;5410965;26;20470;-89
2024/04/15 11:31:41;;;;;;;4.60;2.05;;;18.70;79.30;;;;;;5381543;26;20012;-90
2024/04/15 11:34:11;;;;;;;4.93;2.83;;;18.70;79.20;;;;;;5381494;26;20338;-90
2024/04/15 11:36:46;;;;;;;5.40;2.85;;;18.50;79.00;;;;;;5387286;26;19996;-90
2024/04/15 11:39:14;;;;;;;4.43;2.20;;;18.40;80.60;;;;;;5417768;26;20015;-91
2024/04/15 11:41:42;;;;;;;3.08;2.25;;;18.40;82.70;;;;;;5418378;26;19999;-91
2024/04/15 11:44:09;;;;;;;5.57;2.30;;;18.30;82.30;;;;;;5416019;26;20407;-89
2024/04/15 11:46:42;;;;;;;3.92;2.40;;;18.20;82.70;;;;;;5417646;26;20450;-89
2024/04/15 11:49:09;;;;;;;4.15;2.40;;;18.10;84.40;;;;;;5409253;26;19996;-91
2024/04/15 11:51:36;;;;;;;2.83;2.30;;;18.10;84.90;;;;;;5390340;26;20322;-90
2024/04/15 11:54:03;;;;;;;3.65;2.30;;;18.00;85.70;;;;;;5413881;26;20431;-90
2024/04/15 11:56:30;;;;;;;6.45;2.72;;;18.00;86.90;;;;;;5411159;26;20000;-91
2024/04/15 11:58:57;;;;;;;8.70;2.55;;;18.00;87.50;;;;;;5417574;26;20490;-89
2024/04/15 12:01:29;;;;;;;4.20;2.28;;;18.00;88.80;;;;;;5417620;26;20011;-90
2024/04/15 12:03:56;;;;;;;3.80;2.35;;;17.90;88.80;;;;;;5411750;26;19996;-90
2024/04/15 12:06:23;;;;;;;5.32;3.20;;;17.90;90.30;;;;;;5411065;26;20004;-90
2024/04/15 12:08:51;;;;;;;7.03;2.58;;;17.90;90.70;;;;;;5411563;26;20008;-89
2024/04/15 12:11:21;;;;;;;4.93;2.40;;;17.80;91.00;;;;;;5411916;26;20011;-89
2024/04/15 12:13:49;;;;;;;4.45;2.50;;;17.70;91.00;;;;;;5385331;26;20435;-90
2024/04/15 12:16:16;;;;;;;5.25;2.60;;;17.60;90.90;;;;;;5394740;26;20004;-90
2024/04/15 12:18:43;;;;;;;4.85;2.83;;;17.50;91.80;;;;;;5407365;26;20384;-91
2024/04/15 12:21:10;;;;;;;4.72;2.72;;;17.40;92.10;;;;;;5387501;26;20004;-90
2024/04/15 12:23:37;;;;;;;7.25;2.60;;;17.30;92.80;;;;;;5391530;26;19999;-91
2024/04/15 12:26:04;;;;;;;5.18;2.83;;;17.30;93.40;;;;;;5414617;26;19999;-90
2024/04/15 12:28:31;;;;;;;11.20;3.60;;;17.30;93.60;;;;;;5402880;26;20421;-88
2024/04/15 12:31:00;;;;;;;4.30;3.10;;;17.30;94.80;;;;;;5409300;26;20012;-91
2024/04/15 12:33:30;;;;;;;5.70;2.88;;;17.30;95.70;;;;;;5406785;26;20323;-96
2024/04/15 12:36:01;;;;;;;4.10;3.17;;;17.30;95.70;;;;;;5393272;26;20038;-95
2024/04/15 12:38:28;;;;;;;5.30;3.05;;;17.30;96.50;;;;;;5402591;26;20074;-96
2024/04/15 12:40:58;;;;;;;4.50;3.30;;;17.30;95.20;;;;;;5416631;26;20007;-90
2024/04/15 12:43:25;;;;;;;4.60;3.33;;;17.30;96.50;;;;;;5405452;26;20007;-90
2024/04/15 12:45:52;;;;;;;5.22;3.50;;;17.30;96.50;;;;;;5420890;26;20000;-91
2024/04/15 12:48:19;;;;;;;7.55;3.58;;;17.30;97.10;;;;;;5413384;26;20015;-91
2024/04/15 12:50:52;;;;;;;6.50;3.78;;;17.30;96.70;;;;;;5398051;26;20012;-90
2024/04/15 12:53:23;;;;;;;5.22;3.75;;;17.20;97.10;;;;;;5405558;26;20008;-90
2024/04/15 12:55:51;;;;;;;4.78;3.38;;;17.20;96.90;;;;;;5414457;26;20000;-91